Time;durP1;ratioP1;P1;durP2;ratioP2;P2;SDS_P1;SDS_P2;PMS_P1;PMS_P2;Temp;Humidity;BMP_temperature;BMP_pressure;BME280_temperature;BME280_humidity;BME280_pressure;Samples;Min_cycle;Max_cycle;Signal;HPM_P1;HPM_P2
2021/01/19 00:02:09;;;;;;;15.07;8.03;;;;;;;;;;5050738;28;20188;-68
2021/01/19 00:04:34;;;;;;;15.23;6.77;;;;;;;;;;5045014;28;20189;-68
2021/01/19 00:06:59;;;;;;;14.67;7.40;;;;;;;;;;5043328;28;20201;-68
2021/01/19 00:09:24;;;;;;;11.07;5.87;;;;;;;;;;5048380;28;20185;-69
2021/01/19 00:11:50;;;;;;;10.37;6.00;;;;;;;;;;5045453;28;20190;-68
2021/01/19 00:14:15;;;;;;;17.13;5.70;;;;;;;;;;5044846;28;20263;-68
2021/01/19 00:16:40;;;;;;;9.60;4.90;;;;;;;;;;5043200;28;20701;-68
2021/01/19 00:19:05;;;;;;;12.53;5.90;;;;;;;;;;5045794;28;20186;-69
2021/01/19 00:21:30;;;;;;;11.93;5.70;;;;;;;;;;5048389;28;20253;-69
2021/01/19 00:23:55;;;;;;;8.37;4.70;;;;;;;;;;5046265;28;20202;-69
2021/01/19 00:26:21;;;;;;;10.63;5.03;;;;;;;;;;5049244;28;20217;-68
2021/01/19 00:28:46;;;;;;;11.47;4.80;;;;;;;;;;5044961;28;20204;-68
2021/01/19 00:31:11;;;;;;;15.07;5.03;;;;;;;;;;5050072;28;20241;-68
2021/01/19 00:33:36;;;;;;;10.00;5.00;;;;;;;;;;5046700;28;20581;-69
2021/01/19 00:36:02;;;;;;;11.93;4.83;;;;;;;;;;5049791;28;20201;-68
2021/01/19 00:38:27;;;;;;;9.03;4.43;;;;;;;;;;5046717;28;20673;-67
2021/01/19 00:40:52;;;;;;;16.03;4.57;;;;;;;;;;5047335;28;20169;-68
2021/01/19 00:43:17;;;;;;;10.47;4.40;;;;;;;;;;5046871;28;20207;-66
2021/01/19 00:45:42;;;;;;;9.43;4.00;;;;;;;;;;5031858;28;20182;-68
2021/01/19 00:48:08;;;;;;;11.07;3.93;;;;;;;;;;5049864;28;20261;-67
2021/01/19 00:50:33;;;;;;;7.53;3.87;;;;;;;;;;5048480;28;20191;-67
2021/01/19 00:52:58;;;;;;;9.57;3.97;;;;;;;;;;5045914;28;20221;-67
2021/01/19 00:55:24;;;;;;;9.03;3.47;;;;;;;;;;5029214;28;20244;-67
2021/01/19 00:57:49;;;;;;;12.13;4.47;;;;;;;;;;5043032;28;20257;-68
2021/01/19 01:00:14;;;;;;;8.10;3.10;;;;;;;;;;5047653;28;20177;-68
2021/01/19 01:02:39;;;;;;;10.83;3.60;;;;;;;;;;5047217;28;20221;-67
2021/01/19 01:05:05;;;;;;;9.33;3.13;;;;;;;;;;5054362;28;20181;-67
2021/01/19 01:07:34;;;;;;;7.40;3.30;;;;;;;;;;5048403;28;20609;-67
2021/01/19 01:09:59;;;;;;;5.97;3.03;;;;;;;;;;5047151;28;20209;-67
2021/01/19 01:12:25;;;;;;;10.27;3.43;;;;;;;;;;5047553;28;20215;-67
2021/01/19 01:14:50;;;;;;;9.50;3.53;;;;;;;;;;5043466;28;20663;-67
2021/01/19 01:17:15;;;;;;;6.67;2.77;;;;;;;;;;5042823;28;20214;-67
2021/01/19 01:19:40;;;;;;;11.73;3.43;;;;;;;;;;5045087;28;20178;-67
2021/01/19 01:22:05;;;;;;;14.67;3.67;;;;;;;;;;5047236;28;20177;-67
2021/01/19 01:24:30;;;;;;;7.13;3.47;;;;;;;;;;5045215;28;20270;-67
2021/01/19 01:26:56;;;;;;;9.37;3.17;;;;;;;;;;5048027;28;20205;-67
2021/01/19 01:29:21;;;;;;;8.17;3.60;;;;;;;;;;5044169;28;20730;-68
2021/01/19 01:31:46;;;;;;;9.73;4.10;;;;;;;;;;5047040;28;20225;-68
2021/01/19 01:34:11;;;;;;;6.40;3.57;;;;;;;;;;5028733;28;20308;-67
2021/01/19 01:36:40;;;;;;;12.80;3.53;;;;;;;;;;5048318;28;20228;-67
2021/01/19 01:39:05;;;;;;;9.80;3.97;;;;;;;;;;5046618;28;20182;-67
2021/01/19 01:41:30;;;;;;;8.27;3.30;;;;;;;;;;5048434;28;20190;-67
2021/01/19 01:43:55;;;;;;;8.07;3.60;;;;;;;;;;5030566;28;20194;-68
2021/01/19 01:46:20;;;;;;;5.63;3.03;;;;;;;;;;5029978;28;20225;-68
2021/01/19 01:48:47;;;;;;;12.77;3.53;;;;;;;;;;5051762;28;20203;-67
2021/01/19 01:51:12;;;;;;;12.23;3.67;;;;;;;;;;5049290;28;20216;-68
2021/01/19 01:53:38;;;;;;;10.13;4.23;;;;;;;;;;5051130;28;20220;-68
2021/01/19 01:56:07;;;;;;;6.07;3.23;;;;;;;;;;5050735;28;20372;-67
2021/01/19 01:58:33;;;;;;;7.83;3.50;;;;;;;;;;5051178;28;20627;-67
2021/01/19 02:00:58;;;;;;;7.47;3.50;;;;;;;;;;5052361;28;20256;-67
2021/01/19 02:03:23;;;;;;;11.70;3.13;;;;;;;;;;5051394;28;20627;-67
2021/01/19 02:05:48;;;;;;;6.73;3.27;;;;;;;;;;5052901;28;20257;-67
2021/01/19 02:08:14;;;;;;;10.63;3.53;;;;;;;;;;5054262;28;20193;-67
2021/01/19 02:10:50;;;;;;;8.30;4.38;;;;;;;;;;5045030;28;20249;-67
2021/01/19 02:13:34;;;;;;;11.07;3.97;;;;;;;;;;5050595;28;20205;-67
2021/01/19 02:16:18;;;;;;;10.63;3.30;;;;;;;;;;5030976;28;20282;-67
2021/01/19 02:18:43;;;;;;;14.73;4.00;;;;;;;;;;5056431;28;20365;-67
2021/01/19 02:21:08;;;;;;;9.63;3.78;;;;;;;;;;5048883;28;20179;-67
2021/01/19 02:23:49;;;;;;;10.32;4.07;;;;;;;;;;5045694;28;20256;-67
2021/01/19 02:26:33;;;;;;;6.60;3.73;;;;;;;;;;5030060;28;20801;-67
2021/01/19 02:29:09;;;;;;;7.30;3.27;;;;;;;;;;5047285;28;20260;-67
2021/01/19 02:32:00;;;;;;;9.50;3.40;;;;;;;;;;5044819;28;20184;-67
2021/01/19 02:34:55;;;;;;;10.70;4.07;;;;;;;;;;5047803;28;20206;-67
2021/01/19 02:37:23;;;;;;;9.43;3.93;;;;;;;;;;4963340;28;20758;-68
2021/01/19 02:40:00;;;;;;;10.23;3.53;;;;;;;;;;5047174;28;20196;-67
2021/01/19 02:42:29;;;;;;;13.87;3.80;;;;;;;;;;5050803;28;20181;-68
2021/01/19 02:44:55;;;;;;;12.80;4.70;;;;;;;;;;5055343;28;20170;-67
2021/01/19 02:47:21;;;;;;;8.03;3.53;;;;;;;;;;5031695;28;20678;-67
2021/01/19 02:49:46;;;;;;;14.33;5.17;;;;;;;;;;5052120;28;20177;-67
2021/01/19 02:52:13;;;;;;;11.53;4.73;;;;;;;;;;5046002;28;20184;-69
2021/01/19 02:54:38;;;;;;;13.50;5.27;;;;;;;;;;5054166;28;20183;-67
2021/01/19 02:57:03;;;;;;;10.70;4.27;;;;;;;;;;5049370;28;20213;-67
2021/01/19 02:59:31;;;;;;;9.60;4.78;;;;;;;;;;5047083;28;20165;-67
2021/01/19 03:02:04;;;;;;;13.97;4.67;;;;;;;;;;5047036;28;20244;-67
2021/01/19 03:04:30;;;;;;;7.23;4.50;;;;;;;;;;5044532;28;20197;-68
2021/01/19 03:06:57;;;;;;;19.33;4.83;;;;;;;;;;5050520;28;20174;-67
2021/01/19 03:09:23;;;;;;;10.80;4.73;;;;;;;;;;5043261;28;20213;-67
2021/01/19 03:11:48;;;;;;;11.77;4.90;;;;;;;;;;5049971;28;20178;-67
2021/01/19 03:14:13;;;;;;;13.87;5.20;;;;;;;;;;5051385;28;20285;-66
2021/01/19 03:16:39;;;;;;;12.07;6.13;;;;;;;;;;5047325;28;20619;-67
2021/01/19 03:19:04;;;;;;;11.63;6.50;;;;;;;;;;5048874;28;20181;-67
2021/01/19 03:21:29;;;;;;;16.67;5.87;;;;;;;;;;5048572;28;20594;-67
2021/01/19 03:23:54;;;;;;;11.53;6.00;;;;;;;;;;5048803;28;20511;-67
2021/01/19 03:26:20;;;;;;;12.50;6.10;;;;;;;;;;5042702;28;20173;-67
2021/01/19 03:28:45;;;;;;;11.37;7.13;;;;;;;;;;5048616;28;20562;-67
2021/01/19 03:31:10;;;;;;;15.63;7.00;;;;;;;;;;5042655;28;20717;-67
2021/01/19 03:33:35;;;;;;;12.10;6.80;;;;;;;;;;5048299;28;20197;-67
2021/01/19 03:36:00;;;;;;;13.83;7.57;;;;;;;;;;5049554;28;20297;-67
2021/01/19 03:38:26;;;;;;;9.30;6.10;;;;;;;;;;5052689;28;20189;-67
2021/01/19 03:40:51;;;;;;;11.57;7.97;;;;;;;;;;5050237;28;20722;-67
2021/01/19 03:43:16;;;;;;;11.53;6.67;;;;;;;;;;5050821;28;20232;-67
2021/01/19 03:45:41;;;;;;;16.60;8.43;;;;;;;;;;5047217;28;20203;-67
2021/01/19 03:48:07;;;;;;;18.70;7.50;;;;;;;;;;5049531;28;20217;-67
2021/01/19 03:50:32;;;;;;;12.93;8.33;;;;;;;;;;5049883;28;20315;-67
2021/01/19 03:52:57;;;;;;;12.50;8.53;;;;;;;;;;5051067;28;20234;-67
2021/01/19 03:55:23;;;;;;;22.97;7.90;;;;;;;;;;5044651;28;20706;-67
2021/01/19 03:57:48;;;;;;;13.40;8.93;;;;;;;;;;5051896;28;20320;-67
2021/01/19 04:00:14;;;;;;;15.27;8.53;;;;;;;;;;5048082;28;20181;-68
2021/01/19 04:02:40;;;;;;;15.50;9.30;;;;;;;;;;5048488;28;20413;-68
2021/01/19 04:05:05;;;;;;;14.87;9.67;;;;;;;;;;5045817;28;20726;-67
2021/01/19 04:07:31;;;;;;;15.97;9.00;;;;;;;;;;5049282;28;20188;-67
2021/01/19 04:09:56;;;;;;;14.40;8.00;;;;;;;;;;5050669;28;20170;-67
2021/01/19 04:12:21;;;;;;;13.70;9.93;;;;;;;;;;5049366;28;20182;-67
2021/01/19 04:14:46;;;;;;;14.53;10.73;;;;;;;;;;5049481;28;20667;-67
2021/01/19 04:17:11;;;;;;;16.00;9.80;;;;;;;;;;5046127;28;20285;-68
2021/01/19 04:19:37;;;;;;;18.20;11.27;;;;;;;;;;5049980;28;20177;-67
2021/01/19 04:22:02;;;;;;;19.23;10.77;;;;;;;;;;5050692;28;20181;-68
2021/01/19 04:24:27;;;;;;;18.77;11.20;;;;;;;;;;5050312;28;20223;-68
2021/01/19 04:26:52;;;;;;;12.77;10.07;;;;;;;;;;5048345;28;20185;-68
2021/01/19 04:29:17;;;;;;;17.03;11.43;;;;;;;;;;5049036;28;20173;-68
2021/01/19 04:31:42;;;;;;;15.47;11.97;;;;;;;;;;5049018;28;20181;-68
2021/01/19 04:34:08;;;;;;;16.50;11.50;;;;;;;;;;5031740;28;20209;-67
2021/01/19 04:36:33;;;;;;;19.57;12.17;;;;;;;;;;5046053;28;20678;-68
2021/01/19 04:38:58;;;;;;;15.27;11.30;;;;;;;;;;5050258;28;20265;-67
2021/01/19 04:41:24;;;;;;;12.97;10.77;;;;;;;;;;5031095;28;20173;-68
2021/01/19 04:43:49;;;;;;;18.13;11.57;;;;;;;;;;5032621;28;20205;-67
2021/01/19 04:46:16;;;;;;;14.53;10.70;;;;;;;;;;5048034;28;20567;-68
2021/01/19 04:48:42;;;;;;;11.27;9.33;;;;;;;;;;5048005;28;20178;-68
2021/01/19 04:51:10;;;;;;;16.07;11.07;;;;;;;;;;5033388;28;20793;-68
2021/01/19 04:53:37;;;;;;;13.50;11.63;;;;;;;;;;5045238;28;20209;-67
2021/01/19 04:56:03;;;;;;;14.93;10.40;;;;;;;;;;5046556;28;20279;-68
2021/01/19 04:58:29;;;;;;;12.70;10.13;;;;;;;;;;5049671;28;20176;-68
2021/01/19 05:01:05;;;;;;;15.80;10.00;;;;;;;;;;5046963;28;20174;-68
2021/01/19 05:03:37;;;;;;;13.37;9.63;;;;;;;;;;5049362;28;20272;-68
2021/01/19 05:06:06;;;;;;;13.07;10.13;;;;;;;;;;5047561;28;20200;-68
2021/01/19 05:08:37;;;;;;;13.80;10.50;;;;;;;;;;5049065;28;20185;-68
2021/01/19 05:11:02;;;;;;;12.00;10.20;;;;;;;;;;5048775;28;20180;-67
2021/01/19 05:13:36;;;;;;;11.50;9.40;;;;;;;;;;5050803;28;20197;-68
2021/01/19 05:16:03;;;;;;;14.23;10.07;;;;;;;;;;5045929;28;20193;-68
2021/01/19 05:18:30;;;;;;;11.93;10.50;;;;;;;;;;5048872;28;20684;-68
2021/01/19 05:20:59;;;;;;;11.97;10.27;;;;;;;;;;5049619;28;20647;-68
2021/01/19 05:23:25;;;;;;;15.80;11.40;;;;;;;;;;5050443;28;20233;-68
2021/01/19 05:25:53;;;;;;;11.03;9.80;;;;;;;;;;5049806;28;20198;-68
2021/01/19 05:28:27;;;;;;;13.83;10.60;;;;;;;;;;5052795;28;20190;-68
2021/01/19 05:30:53;;;;;;;13.70;10.73;;;;;;;;;;5049052;28;20189;-68
2021/01/19 05:33:18;;;;;;;13.57;10.87;;;;;;;;;;5052646;28;20206;-67
2021/01/19 05:35:43;;;;;;;11.77;10.53;;;;;;;;;;5051404;28;20212;-68
2021/01/19 05:38:08;;;;;;;13.87;9.70;;;;;;;;;;5048313;28;20186;-68
2021/01/19 05:40:41;;;;;;;14.03;11.17;;;;;;;;;;5053687;28;20169;-68
2021/01/19 05:43:10;;;;;;;14.03;10.40;;;;;;;;;;5050440;28;20284;-68
2021/01/19 05:45:35;;;;;;;16.60;9.90;;;;;;;;;;5043901;28;20180;-67
2021/01/19 05:48:11;;;;;;;14.40;10.20;;;;;;;;;;5049267;28;20253;-68
2021/01/19 05:50:37;;;;;;;14.50;10.30;;;;;;;;;;5045826;28;20181;-68
2021/01/19 05:53:11;;;;;;;14.47;10.67;;;;;;;;;;5052391;28;20619;-68
2021/01/19 05:55:38;;;;;;;14.00;10.70;;;;;;;;;;5049024;28;20532;-68
2021/01/19 05:58:11;;;;;;;14.87;11.07;;;;;;;;;;5035545;28;20177;-68
2021/01/19 06:00:36;;;;;;;11.80;9.40;;;;;;;;;;5052974;28;20580;-68
2021/01/19 06:03:13;;;;;;;11.00;9.53;;;;;;;;;;5044941;28;20198;-67
2021/01/19 06:05:38;;;;;;;13.60;9.83;;;;;;;;;;5044199;28;20256;-68
2021/01/19 06:08:04;;;;;;;12.33;9.87;;;;;;;;;;5040759;28;20267;-67
2021/01/19 06:10:30;;;;;;;12.83;9.57;;;;;;;;;;5047141;28;20666;-68
2021/01/19 06:12:57;;;;;;;12.77;9.47;;;;;;;;;;5043674;28;20762;-68
2021/01/19 06:15:29;;;;;;;11.33;9.63;;;;;;;;;;5044778;28;20185;-68
2021/01/19 06:17:55;;;;;;;9.67;8.43;;;;;;;;;;5045455;28;20178;-68
2021/01/19 06:20:21;;;;;;;12.73;9.17;;;;;;;;;;5050093;28;20536;-68
2021/01/19 06:22:46;;;;;;;11.07;8.80;;;;;;;;;;5052567;28;20224;-68
2021/01/19 06:25:12;;;;;;;13.63;9.33;;;;;;;;;;5048230;28;20216;-68
2021/01/19 06:27:37;;;;;;;10.00;8.40;;;;;;;;;;5053886;28;20177;-68
2021/01/19 06:30:02;;;;;;;11.90;8.57;;;;;;;;;;5049693;28;20681;-68
2021/01/19 06:32:35;;;;;;;10.27;8.85;;;;;;;;;;5052222;28;20185;-68
2021/01/19 06:35:10;;;;;;;12.50;8.60;;;;;;;;;;5042856;28;20190;-69
2021/01/19 06:37:36;;;;;;;8.87;7.90;;;;;;;;;;5050244;28;20200;-69
2021/01/19 06:40:03;;;;;;;8.63;7.73;;;;;;;;;;5027629;28;20282;-68
2021/01/19 06:42:29;;;;;;;8.73;7.33;;;;;;;;;;5051182;28;20269;-68
2021/01/19 06:44:57;;;;;;;8.13;7.10;;;;;;;;;;5033665;28;20662;-68
2021/01/19 06:47:22;;;;;;;8.60;7.73;;;;;;;;;;5047362;28;20690;-69
2021/01/19 06:49:49;;;;;;;8.03;7.20;;;;;;;;;;5028882;28;20272;-68
2021/01/19 06:52:15;;;;;;;7.97;7.17;;;;;;;;;;5049801;28;20192;-68
2021/01/19 06:55:01;;;;;;;8.33;7.53;;;;;;;;;;5051874;28;20671;-68
2021/01/19 06:57:30;;;;;;;9.07;7.53;;;;;;;;;;5036533;28;20200;-68
2021/01/19 07:00:04;;;;;;;8.77;7.87;;;;;;;;;;5051085;28;20181;-68
2021/01/19 07:02:33;;;;;;;8.63;7.73;;;;;;;;;;5034572;28;20241;-69
2021/01/19 07:05:05;;;;;;;7.23;6.53;;;;;;;;;;5051916;28;20177;-69
2021/01/19 07:07:35;;;;;;;7.70;6.03;;;;;;;;;;5049634;28;20181;-68
2021/01/19 07:10:21;;;;;;;5.60;4.93;;;;;;;;;;5046470;28;20181;-67
2021/01/19 07:13:02;;;;;;;6.10;5.40;;;;;;;;;;5050537;28;20301;-69
2021/01/19 07:15:40;;;;;;;7.23;5.97;;;;;;;;;;5021460;28;20182;-68
2021/01/19 07:18:11;;;;;;;7.03;5.73;;;;;;;;;;5039895;28;20568;-68
2021/01/19 07:20:40;;;;;;;6.50;4.87;;;;;;;;;;5044021;28;21981;-68
2021/01/19 07:23:17;;;;;;;7.43;5.20;;;;;;;;;;5042180;28;20759;-68
2021/01/19 07:25:42;;;;;;;7.87;4.93;;;;;;;;;;5039969;28;20198;-68
2021/01/19 07:28:07;;;;;;;8.50;4.73;;;;;;;;;;5041449;28;20738;-68
2021/01/19 07:30:32;;;;;;;8.90;4.60;;;;;;;;;;5044293;28;20261;-69
2021/01/19 07:32:58;;;;;;;7.53;4.50;;;;;;;;;;5041634;28;20216;-68
2021/01/19 07:35:24;;;;;;;7.13;4.30;;;;;;;;;;5041084;28;20212;-69
2021/01/19 07:37:56;;;;;;;4.73;3.47;;;;;;;;;;5039439;28;20309;-70
2021/01/19 07:40:22;;;;;;;11.73;4.13;;;;;;;;;;5040711;28;20173;-69
2021/01/19 07:42:47;;;;;;;7.17;3.60;;;;;;;;;;5040523;28;20556;-68
2021/01/19 07:45:13;;;;;;;4.97;3.87;;;;;;;;;;5039267;28;20190;-68
2021/01/19 07:47:39;;;;;;;4.27;3.23;;;;;;;;;;5038587;28;20201;-69
2021/01/19 07:50:06;;;;;;;7.23;4.00;;;;;;;;;;5042702;28;20222;-68
2021/01/19 07:52:35;;;;;;;5.50;3.50;;;;;;;;;;5042901;28;20666;-68
2021/01/19 07:55:10;;;;;;;5.20;4.20;;;;;;;;;;5042206;28;20182;-69
2021/01/19 07:57:36;;;;;;;5.37;3.77;;;;;;;;;;5044768;28;20219;-68
2021/01/19 08:00:03;;;;;;;5.73;3.63;;;;;;;;;;5048405;28;20177;-69
2021/01/19 08:02:28;;;;;;;5.30;4.10;;;;;;;;;;5043587;28;20181;-68
2021/01/19 08:05:00;;;;;;;8.03;4.50;;;;;;;;;;5044463;28;20177;-68
2021/01/19 08:07:36;;;;;;;6.93;4.03;;;;;;;;;;5040730;28;20181;-69
2021/01/19 08:10:01;;;;;;;4.13;3.60;;;;;;;;;;5043418;28;20192;-69
2021/01/19 08:12:34;;;;;;;6.00;4.00;;;;;;;;;;5047183;28;20182;-68
2021/01/19 08:15:03;;;;;;;4.33;3.70;;;;;;;;;;5038766;28;20268;-68
2021/01/19 08:17:51;;;;;;;5.00;3.87;;;;;;;;;;5044677;28;20312;-68
2021/01/19 08:20:26;;;;;;;6.67;4.23;;;;;;;;;;5029065;28;20184;-67
2021/01/19 08:22:51;;;;;;;5.20;4.33;;;;;;;;;;5039599;28;20251;-68
2021/01/19 08:25:23;;;;;;;7.20;4.20;;;;;;;;;;5042639;28;20174;-68
2021/01/19 08:27:49;;;;;;;6.20;5.13;;;;;;;;;;5038314;28;20221;-68
2021/01/19 08:30:24;;;;;;;6.47;4.37;;;;;;;;;;5042148;28;20213;-69
2021/01/19 08:32:50;;;;;;;4.70;4.13;;;;;;;;;;5020253;28;20190;-69
2021/01/19 08:35:16;;;;;;;7.03;4.60;;;;;;;;;;5038795;28;20224;-68
2021/01/19 08:37:46;;;;;;;8.90;4.40;;;;;;;;;;5040635;28;20206;-68
2021/01/19 08:40:11;;;;;;;5.77;5.17;;;;;;;;;;5024635;28;20594;-68
2021/01/19 08:42:36;;;;;;;6.07;4.73;;;;;;;;;;5044145;28;20202;-70
2021/01/19 08:45:02;;;;;;;5.83;4.03;;;;;;;;;;5027910;28;20224;-68
2021/01/19 08:47:30;;;;;;;5.17;4.00;;;;;;;;;;5027257;28;20183;-67
2021/01/19 08:49:55;;;;;;;5.40;3.80;;;;;;;;;;5039231;28;20209;-68
2021/01/19 08:52:27;;;;;;;5.40;3.93;;;;;;;;;;5023974;28;20223;-68
2021/01/19 08:54:52;;;;;;;4.30;3.90;;;;;;;;;;5037780;28;20178;-71
2021/01/19 08:57:20;;;;;;;5.03;3.77;;;;;;;;;;5043294;28;20227;-67
2021/01/19 08:59:49;;;;;;;5.47;3.47;;;;;;;;;;5037851;28;20675;-69
2021/01/19 09:02:14;;;;;;;2.83;2.53;;;;;;;;;;5038107;28;20181;-68
2021/01/19 09:04:40;;;;;;;3.63;3.13;;;;;;;;;;5040248;28;20547;-69
2021/01/19 09:07:06;;;;;;;5.50;3.40;;;;;;;;;;5037450;28;20215;-68
2021/01/19 09:09:31;;;;;;;4.70;3.27;;;;;;;;;;5022138;28;20189;-69
2021/01/19 09:11:56;;;;;;;3.57;2.90;;;;;;;;;;5025493;28;20187;-68
2021/01/19 09:14:24;;;;;;;5.17;3.00;;;;;;;;;;5042329;28;20211;-69
2021/01/19 09:16:50;;;;;;;4.10;2.83;;;;;;;;;;5041850;28;20248;-69
2021/01/19 09:19:15;;;;;;;4.17;3.50;;;;;;;;;;5038785;28;20281;-69
2021/01/19 09:21:40;;;;;;;3.60;3.20;;;;;;;;;;5041748;28;20188;-68
2021/01/19 09:24:16;;;;;;;3.70;3.40;;;;;;;;;;5039251;28;20216;-68
2021/01/19 09:27:14;;;;;;;5.27;3.47;;;;;;;;;;5043212;28;20188;-69
2021/01/19 09:29:33;;;;;;;4.03;3.13;;;;;;;;;;5036548;28;20284;-69
2021/01/19 09:31:59;;;;;;;4.47;3.07;;;;;;;;;;5044848;28;20264;-68
2021/01/19 09:34:25;;;;;;;3.17;2.87;;;;;;;;;;5044335;28;20205;-69
2021/01/19 09:36:50;;;;;;;4.03;3.10;;;;;;;;;;5042859;28;20212;-69
2021/01/19 09:39:25;;;;;;;4.10;3.17;;;;;;;;;;5043262;28;20171;-68
2021/01/19 09:41:52;;;;;;;4.43;3.40;;;;;;;;;;5044074;28;20173;-69
2021/01/19 09:44:18;;;;;;;5.53;3.43;;;;;;;;;;5040112;28;20283;-69
2021/01/19 09:46:43;;;;;;;3.17;2.87;;;;;;;;;;5042050;28;20185;-68
2021/01/19 09:49:08;;;;;;;6.37;3.60;;;;;;;;;;5041427;28;20174;-70
2021/01/19 09:51:33;;;;;;;5.90;4.20;;;;;;;;;;5039144;28;20189;-68
2021/01/19 09:53:59;;;;;;;8.30;4.70;;;;;;;;;;5039231;28;20287;-70
2021/01/19 09:56:27;;;;;;;4.53;4.10;;;;;;;;;;5021060;28;20446;-68
2021/01/19 09:59:05;;;;;;;6.27;4.10;;;;;;;;;;5038225;28;20194;-69
2021/01/19 10:01:30;;;;;;;8.23;4.63;;;;;;;;;;5035292;28;20174;-69
2021/01/19 10:03:55;;;;;;;6.70;4.90;;;;;;;;;;5025262;28;20264;-69
2021/01/19 10:06:21;;;;;;;5.90;5.17;;;;;;;;;;5045294;28;20205;-69
2021/01/19 10:08:51;;;;;;;7.20;5.37;;;;;;;;;;5039371;28;20181;-70
2021/01/19 10:11:33;;;;;;;10.73;5.07;;;;;;;;;;5044369;28;20666;-69
2021/01/19 10:14:14;;;;;;;6.40;5.30;;;;;;;;;;5049148;28;20284;-69
2021/01/19 10:16:49;;;;;;;7.50;5.67;;;;;;;;;;5047925;28;20202;-69
2021/01/19 10:19:20;;;;;;;8.20;6.13;;;;;;;;;;5049246;28;20169;-68
2021/01/19 10:21:47;;;;;;;11.97;6.33;;;;;;;;;;5043912;28;20260;-69
2021/01/19 10:24:16;;;;;;;8.20;6.60;;;;;;;;;;5047267;28;20213;-68
2021/01/19 10:26:54;;;;;;;8.37;6.67;;;;;;;;;;5042168;28;20618;-68
2021/01/19 10:29:21;;;;;;;9.87;6.97;;;;;;;;;;5045311;28;20177;-69
2021/01/19 10:31:50;;;;;;;11.40;6.70;;;;;;;;;;5046893;28;20190;-71
2021/01/19 10:34:20;;;;;;;9.97;7.53;;;;;;;;;;5047875;28;20236;-69
2021/01/19 10:36:50;;;;;;;11.80;7.53;;;;;;;;;;5047969;28;20201;-68
2021/01/19 10:39:15;;;;;;;10.87;6.10;;;;;;;;;;5050841;28;20197;-70
2021/01/19 10:41:41;;;;;;;9.80;4.50;;;;;;;;;;5046132;28;20181;-70
2021/01/19 10:44:10;;;;;;;11.20;3.47;;;;;;;;;;5049891;28;20213;-69
2021/01/19 10:46:35;;;;;;;9.73;3.00;;;;;;;;;;5044371;28;20193;-70
2021/01/19 10:49:00;;;;;;;15.70;3.77;;;;;;;;;;5047143;28;20190;-69
2021/01/19 10:51:27;;;;;;;9.27;4.57;;;;;;;;;;5045511;28;20188;-69
2021/01/19 10:54:01;;;;;;;14.87;3.87;;;;;;;;;;5048541;28;20239;-70
2021/01/19 10:56:26;;;;;;;9.67;4.30;;;;;;;;;;5032381;28;20555;-69
2021/01/19 10:58:51;;;;;;;13.20;5.23;;;;;;;;;;5050764;28;20181;-70
2021/01/19 11:01:16;;;;;;;12.13;3.25;;;;;;;;;;5046931;28;20185;-69
2021/01/19 11:03:41;;;;;;;17.33;3.60;;;;;;;;;;5049926;28;20209;-70
2021/01/19 11:06:07;;;;;;;7.15;2.50;;;;;;;;;;5046964;28;20259;-69
2021/01/19 11:08:32;;;;;;;7.43;2.63;;;;;;;;;;5047370;28;20193;-70
2021/01/19 11:10:57;;;;;;;9.13;3.40;;;;;;;;;;5042365;28;20289;-70
2021/01/19 11:13:22;;;;;;;10.33;2.90;;;;;;;;;;5028711;28;20209;-70
2021/01/19 11:15:47;;;;;;;14.13;3.30;;;;;;;;;;5038458;28;20178;-69
2021/01/19 11:18:13;;;;;;;12.55;3.63;;;;;;;;;;5028191;28;20253;-69
2021/01/19 11:20:40;;;;;;;11.00;3.00;;;;;;;;;;5041257;28;20173;-71
2021/01/19 11:23:05;;;;;;;12.27;4.07;;;;;;;;;;5038357;28;20297;-69
2021/01/19 11:25:30;;;;;;;11.13;3.20;;;;;;;;;;5037546;28;20273;-69
2021/01/19 11:27:55;;;;;;;9.97;3.00;;;;;;;;;;5040956;28;20244;-70
2021/01/19 11:30:20;;;;;;;5.70;2.27;;;;;;;;;;5025980;28;20706;-70
2021/01/19 11:32:46;;;;;;;19.87;3.60;;;;;;;;;;5039583;28;20216;-71
2021/01/19 11:35:11;;;;;;;6.17;2.40;;;;;;;;;;5023435;28;20268;-69
2021/01/19 11:37:36;;;;;;;10.13;2.37;;;;;;;;;;5041040;28;20690;-70
2021/01/19 11:40:01;;;;;;;8.97;2.30;;;;;;;;;;5041917;28;20196;-70
2021/01/19 11:42:26;;;;;;;9.57;2.33;;;;;;;;;;5038341;28;20258;-70
2021/01/19 11:44:52;;;;;;;6.77;2.83;;;;;;;;;;5040094;28;20186;-70
2021/01/19 11:47:17;;;;;;;7.00;2.57;;;;;;;;;;5035839;28;21141;-69
2021/01/19 11:49:42;;;;;;;9.07;2.87;;;;;;;;;;5040531;28;20386;-70
2021/01/19 11:52:07;;;;;;;9.77;2.90;;;;;;;;;;5050250;28;20665;-70
2021/01/19 11:54:32;;;;;;;7.53;2.70;;;;;;;;;;5046737;28;20197;-70
2021/01/19 11:56:58;;;;;;;10.77;4.13;;;;;;;;;;5044865;28;20193;-71
2021/01/19 11:59:25;;;;;;;13.53;3.20;;;;;;;;;;5049676;28;20196;-71
2021/01/19 12:01:55;;;;;;;8.73;3.87;;;;;;;;;;5027819;28;20176;-69
2021/01/19 12:04:20;;;;;;;12.97;3.47;;;;;;;;;;5043502;28;20376;-70
2021/01/19 12:06:45;;;;;;;8.77;3.03;;;;;;;;;;5031622;28;20530;-70
2021/01/19 12:09:11;;;;;;;16.13;3.03;;;;;;;;;;5048279;28;20186;-69
2021/01/19 12:11:40;;;;;;;11.03;3.50;;;;;;;;;;5031746;28;20302;-70
2021/01/19 12:14:05;;;;;;;10.77;2.70;;;;;;;;;;5050941;28;20193;-70
2021/01/19 12:16:30;;;;;;;12.80;2.90;;;;;;;;;;5051417;28;20704;-70
2021/01/19 12:18:55;;;;;;;21.70;4.20;;;;;;;;;;5030796;28;20165;-70
2021/01/19 12:21:20;;;;;;;11.57;2.83;;;;;;;;;;5033788;28;20651;-70
2021/01/19 12:23:46;;;;;;;11.43;3.17;;;;;;;;;;5032403;28;20247;-70
2021/01/19 12:26:11;;;;;;;14.37;2.73;;;;;;;;;;5033825;28;20264;-70
2021/01/19 12:28:36;;;;;;;12.00;4.03;;;;;;;;;;5048999;28;20200;-69
2021/01/19 12:31:01;;;;;;;9.10;3.20;;;;;;;;;;5050275;28;20205;-70
2021/01/19 12:33:27;;;;;;;12.60;3.43;;;;;;;;;;5031472;28;20288;-70
2021/01/19 12:35:52;;;;;;;12.33;4.70;;;;;;;;;;5047589;28;20208;-70
2021/01/19 12:38:18;;;;;;;15.63;3.60;;;;;;;;;;5045434;28;20671;-69
2021/01/19 12:40:43;;;;;;;14.37;4.50;;;;;;;;;;5048730;28;20173;-69
2021/01/19 12:43:09;;;;;;;14.63;4.10;;;;;;;;;;5050223;28;20197;-69
2021/01/19 12:45:35;;;;;;;16.70;4.77;;;;;;;;;;5048518;28;20552;-69
2021/01/19 12:48:00;;;;;;;15.67;4.00;;;;;;;;;;5047798;28;20178;-69
2021/01/19 12:50:25;;;;;;;12.73;4.53;;;;;;;;;;5026569;28;20556;-69
2021/01/19 12:52:53;;;;;;;16.67;3.03;;;;;;;;;;5050042;28;20239;-69
2021/01/19 12:55:18;;;;;;;13.63;3.07;;;;;;;;;;5047427;28;20706;-69
2021/01/19 12:57:43;;;;;;;12.73;3.20;;;;;;;;;;5046060;28;20217;-69
2021/01/19 13:00:08;;;;;;;15.60;4.33;;;;;;;;;;5026304;28;20177;-69
2021/01/19 13:02:34;;;;;;;10.97;2.90;;;;;;;;;;5043206;28;20197;-70
2021/01/19 13:05:02;;;;;;;14.70;2.97;;;;;;;;;;5042336;28;20549;-69
2021/01/19 13:07:28;;;;;;;9.97;3.60;;;;;;;;;;5043744;28;20684;-69
2021/01/19 13:09:53;;;;;;;9.97;2.70;;;;;;;;;;5026801;28;20789;-70
2021/01/19 13:12:20;;;;;;;10.00;2.33;;;;;;;;;;5041215;28;20181;-69
2021/01/19 13:14:45;;;;;;;12.73;3.40;;;;;;;;;;5026130;28;20205;-69
2021/01/19 13:17:11;;;;;;;10.53;2.40;;;;;;;;;;5043742;28;20198;-69
2021/01/19 13:19:37;;;;;;;13.13;2.67;;;;;;;;;;5034497;28;20177;-70
2021/01/19 13:22:03;;;;;;;8.33;2.10;;;;;;;;;;5045541;28;20173;-70
2021/01/19 13:24:28;;;;;;;10.87;2.60;;;;;;;;;;5036046;28;20205;-68
2021/01/19 13:26:53;;;;;;;9.20;2.50;;;;;;;;;;5043220;28;20173;-68
2021/01/19 13:29:19;;;;;;;9.33;2.07;;;;;;;;;;5041050;28;20242;-68
2021/01/19 13:31:44;;;;;;;11.23;2.60;;;;;;;;;;5043677;28;20178;-69
2021/01/19 13:34:09;;;;;;;5.60;2.23;;;;;;;;;;5024496;28;20206;-69
2021/01/19 13:36:35;;;;;;;9.07;2.00;;;;;;;;;;5042775;28;20213;-69
2021/01/19 13:39:00;;;;;;;9.23;2.10;;;;;;;;;;5042120;28;20181;-69
2021/01/19 13:41:26;;;;;;;9.43;2.07;;;;;;;;;;5044052;28;20185;-69
2021/01/19 13:43:51;;;;;;;7.50;2.27;;;;;;;;;;5044413;28;20198;-69
2021/01/19 13:46:16;;;;;;;11.53;2.27;;;;;;;;;;5040055;28;20178;-68
2021/01/19 13:48:41;;;;;;;19.47;2.63;;;;;;;;;;5043546;28;20673;-70
2021/01/19 13:51:09;;;;;;;11.10;2.93;;;;;;;;;;5023862;28;20535;-69
2021/01/19 13:53:39;;;;;;;15.47;3.10;;;;;;;;;;5048152;28;20236;-69
2021/01/19 13:56:05;;;;;;;13.80;2.73;;;;;;;;;;5047199;28;20335;-69
2021/01/19 13:58:30;;;;;;;7.40;2.20;;;;;;;;;;5040568;28;20264;-68
2021/01/19 14:00:55;;;;;;;10.30;2.10;;;;;;;;;;5046241;28;20193;-67
2021/01/19 14:03:22;;;;;;;8.57;1.93;;;;;;;;;;5050256;28;20390;-68
2021/01/19 14:05:47;;;;;;;7.83;2.00;;;;;;;;;;5046788;28;20181;-68
2021/01/19 14:08:12;;;;;;;4.03;1.70;;;;;;;;;;5045427;28;20178;-67
2021/01/19 14:10:37;;;;;;;5.60;1.93;;;;;;;;;;5043410;28;20189;-68
2021/01/19 14:13:03;;;;;;;8.67;1.73;;;;;;;;;;5041277;28;20224;-69
2021/01/19 14:15:28;;;;;;;9.10;2.03;;;;;;;;;;5049248;28;20182;-67
2021/01/19 14:17:53;;;;;;;6.67;1.87;;;;;;;;;;5047270;28;20438;-71
2021/01/19 14:20:18;;;;;;;9.10;1.80;;;;;;;;;;5030602;28;20195;-69
2021/01/19 14:22:43;;;;;;;5.70;1.70;;;;;;;;;;5046664;28;20311;-68
2021/01/19 14:25:09;;;;;;;5.03;2.00;;;;;;;;;;5044383;28;20256;-68
2021/01/19 14:27:35;;;;;;;6.20;1.13;;;;;;;;;;5049988;28;20224;-68
2021/01/19 14:30:00;;;;;;;4.97;1.53;;;;;;;;;;5052713;28;20185;-69
2021/01/19 14:32:26;;;;;;;12.60;1.63;;;;;;;;;;5029218;28;20582;-68
2021/01/19 14:34:51;;;;;;;3.37;1.53;;;;;;;;;;5053691;28;20195;-68
2021/01/19 14:37:16;;;;;;;4.00;1.47;;;;;;;;;;5048044;28;20205;-69